createdAt,value
2023-08-07T00:02:21.063Z,72.51
2023-08-07T00:04:48.002Z,72.17
2023-08-07T00:07:15.207Z,73.12
2023-08-07T00:09:42.871Z,72.67
2023-08-07T00:12:10.464Z,72.65
2023-08-07T00:14:37.376Z,72.43
2023-08-07T00:17:06.854Z,73.17
2023-08-07T00:19:33.817Z,73.27
2023-08-07T00:22:01.322Z,72.69
2023-08-07T00:24:28.268Z,72.70
2023-08-07T00:26:55.703Z,73.00
2023-08-07T00:29:22.927Z,72.69
2023-08-07T00:31:50.651Z,72.33
2023-08-07T00:34:17.583Z,73.15
2023-08-07T00:36:45.106Z,72.92
2023-08-07T00:39:12.035Z,73.10
2023-08-07T00:41:39.260Z,72.82
2023-08-07T00:44:07.279Z,72.86
2023-08-07T00:46:35.060Z,72.75
2023-08-07T00:49:02.842Z,72.05
2023-08-07T00:51:30.634Z,72.46
2023-08-07T00:53:57.888Z,72.37
2023-08-07T00:56:26.912Z,72.11
2023-08-07T00:58:54.559Z,72.26
2023-08-07T01:01:22.085Z,72.08
2023-08-07T01:03:49.161Z,71.83
2023-08-07T01:06:16.496Z,71.97
2023-08-07T01:08:44.109Z,71.92
2023-08-07T01:11:37.372Z,72.00
2023-08-07T01:14:15.037Z,71.43
2023-08-07T01:17:05.917Z,71.48
2023-08-07T01:19:35.301Z,71.73
2023-08-07T01:22:15.712Z,70.99
2023-08-07T01:24:48.687Z,71.56
2023-08-07T01:27:18.672Z,71.38
2023-08-07T01:30:07.118Z,71.27
2023-08-07T01:32:48.788Z,70.82
2023-08-07T01:35:20.821Z,70.89
2023-08-07T01:37:49.975Z,70.90
2023-08-07T01:40:18.707Z,70.65
2023-08-07T01:42:46.854Z,71.02
2023-08-07T01:45:14.048Z,71.43
2023-08-07T01:47:41.340Z,70.99
2023-08-07T01:50:08.619Z,71.05
2023-08-07T01:52:36.005Z,71.68
2023-08-07T01:55:02.981Z,71.86
2023-08-07T01:57:30.270Z,72.10
2023-08-07T01:59:57.223Z,72.42
2023-08-07T02:02:24.862Z,72.54
2023-08-07T02:04:52.013Z,73.26
2023-08-07T02:07:19.312Z,73.94
2023-08-07T02:09:46.231Z,74.50
2023-08-07T02:12:13.388Z,74.06
2023-08-07T02:14:40.314Z,74.14
2023-08-07T02:17:07.520Z,74.89
2023-08-07T02:19:34.537Z,74.55
2023-08-07T02:22:02.540Z,74.89
2023-08-07T02:24:29.529Z,75.14
2023-08-07T02:26:57.001Z,75.18
2023-08-07T02:29:24.291Z,75.58
2023-08-07T02:31:51.574Z,76.73
2023-08-07T02:34:18.613Z,76.12
2023-08-07T02:36:45.830Z,76.48
2023-08-07T02:39:15.823Z,76.78
2023-08-07T02:41:43.210Z,76.58
2023-08-07T02:44:10.176Z,76.55
2023-08-07T02:46:37.644Z,76.77
2023-08-07T02:49:05.832Z,77.48
2023-08-07T02:51:33.967Z,77.18
2023-08-07T02:54:00.825Z,76.97
2023-08-07T02:56:28.185Z,77.50
2023-08-07T02:58:55.163Z,77.96
2023-08-07T03:01:22.784Z,77.87
2023-08-07T03:03:49.705Z,79.16
2023-08-07T03:06:17.095Z,78.69
2023-08-07T03:08:44.087Z,78.13
2023-08-07T03:11:11.381Z,78.38
2023-08-07T03:13:38.399Z,78.55
2023-08-07T03:16:07.440Z,78.21
2023-08-07T03:18:34.794Z,80.17
2023-08-07T03:21:02.295Z,80.15
2023-08-07T03:23:30.196Z,80.23
2023-08-07T03:26:23.991Z,79.16
2023-08-07T03:28:51.990Z,80.04
2023-08-07T03:31:19.265Z,79.30
2023-08-07T03:33:46.262Z,79.24
2023-08-07T03:36:13.564Z,79.00
2023-08-07T03:38:40.493Z,79.75
2023-08-07T03:41:07.723Z,79.49
2023-08-07T03:43:34.778Z,80.29
2023-08-07T03:46:03.841Z,78.98
2023-08-07T03:48:32.158Z,78.95
2023-08-07T03:51:09.687Z,79.30
2023-08-07T03:53:37.783Z,78.97
2023-08-07T03:56:05.339Z,78.88
2023-08-07T03:58:32.790Z,79.00
2023-08-07T04:01:00.096Z,78.88
2023-08-07T04:03:27.324Z,78.74
2023-08-07T04:05:56.206Z,78.68
2023-08-07T04:08:24.465Z,78.78
2023-08-07T04:11:05.935Z,78.92
2023-08-07T04:13:33.500Z,79.69
2023-08-07T04:16:02.918Z,79.21
2023-08-07T04:18:30.022Z,78.59
2023-08-07T04:20:58.449Z,78.68
2023-08-07T04:23:26.018Z,78.52
2023-08-07T04:25:56.148Z,77.69
2023-08-07T04:28:23.372Z,77.82
2023-08-07T04:30:52.634Z,78.61
2023-08-07T04:33:21.131Z,78.38
2023-08-07T04:35:49.051Z,78.67
2023-08-07T04:38:17.967Z,78.40
2023-08-07T04:40:50.210Z,78.25
2023-08-07T04:43:19.027Z,78.36
2023-08-07T04:45:46.909Z,78.21
2023-08-07T04:48:14.899Z,78.13
2023-08-07T04:50:42.739Z,77.46
2023-08-07T04:53:09.879Z,77.30
2023-08-07T04:55:37.269Z,77.82
2023-08-07T04:58:04.509Z,77.77
2023-08-07T05:00:32.070Z,78.05
2023-08-07T05:02:59.246Z,77.62
2023-08-07T05:05:26.728Z,77.60
2023-08-07T05:07:56.041Z,77.89
2023-08-07T05:10:23.287Z,76.98
2023-08-07T05:12:56.118Z,77.87
2023-08-07T05:15:25.260Z,77.53
2023-08-07T05:17:53.562Z,77.92
2023-08-07T05:20:21.330Z,77.98
2023-08-07T05:22:48.926Z,77.32
2023-08-07T05:25:17.431Z,77.83
2023-08-07T05:27:46.698Z,77.82
2023-08-07T05:30:15.257Z,77.89
2023-08-07T05:32:43.041Z,77.90
2023-08-07T05:35:10.598Z,77.76
2023-08-07T05:37:37.687Z,77.48
2023-08-07T05:40:08.891Z,77.88
2023-08-07T05:42:36.132Z,77.58
2023-08-07T05:45:04.896Z,77.74
2023-08-07T05:47:34.017Z,77.00
2023-08-07T05:50:01.954Z,77.14
2023-08-07T05:52:29.013Z,77.47
2023-08-07T05:54:56.201Z,77.49
2023-08-07T05:57:23.164Z,76.86
2023-08-07T05:59:50.572Z,77.60
2023-08-07T06:02:17.912Z,77.40
2023-08-07T06:04:46.307Z,76.70
2023-08-07T06:07:13.215Z,77.19
2023-08-07T06:09:40.598Z,76.53
2023-08-07T06:12:08.595Z,76.93
2023-08-07T06:14:35.885Z,76.84
2023-08-07T06:17:03.160Z,76.66
2023-08-07T06:19:32.980Z,76.65
2023-08-07T06:22:01.708Z,76.53
2023-08-07T06:24:30.204Z,76.67
2023-08-07T06:26:57.251Z,75.76
2023-08-07T06:29:24.574Z,75.97
2023-08-07T06:31:51.757Z,75.95
2023-08-07T06:34:19.114Z,75.67
2023-08-07T06:36:46.176Z,75.00
2023-08-07T06:39:13.444Z,74.91
2023-08-07T06:41:40.673Z,74.49
2023-08-07T06:44:08.176Z,74.65
2023-08-07T06:46:35.243Z,75.14
2023-08-07T06:49:02.517Z,74.34
2023-08-07T06:51:29.577Z,74.48
2023-08-07T06:53:56.868Z,73.51
2023-08-07T06:56:23.971Z,73.36
2023-08-07T06:58:51.326Z,73.87
2023-08-07T07:01:18.665Z,73.85
2023-08-07T07:03:48.129Z,73.46
2023-08-07T07:06:15.268Z,73.39
2023-08-07T07:08:42.527Z,73.56
2023-08-07T07:11:09.615Z,73.07
2023-08-07T07:13:37.290Z,74.05
2023-08-07T07:16:04.727Z,74.42
2023-08-07T07:18:32.307Z,74.23
2023-08-07T07:20:59.993Z,73.91
2023-08-07T07:23:28.209Z,74.20
2023-08-07T07:25:55.369Z,74.09
2023-08-07T07:28:22.733Z,74.22
2023-08-07T07:30:51.286Z,73.56
2023-08-07T07:33:18.717Z,73.43
2023-08-07T07:35:46.154Z,74.06
2023-08-07T07:38:13.509Z,73.77
2023-08-07T07:40:40.573Z,73.94
2023-08-07T07:43:07.950Z,74.10
2023-08-07T07:45:36.965Z,73.30
2023-08-07T07:48:05.517Z,72.93
2023-08-07T07:50:32.626Z,73.29
2023-08-07T07:52:59.936Z,73.39
2023-08-07T07:55:27.204Z,73.47
2023-08-07T07:57:56.308Z,73.50
2023-08-07T08:00:27.965Z,73.23
2023-08-07T08:02:55.472Z,72.79
2023-08-07T08:05:23.128Z,72.43
2023-08-07T08:07:50.623Z,72.92
2023-08-07T08:10:18.651Z,72.45
2023-08-07T08:12:47.714Z,71.65
2023-08-07T08:15:14.960Z,71.01
2023-08-07T08:17:42.757Z,69.99
2023-08-07T08:20:10.828Z,69.88
2023-08-07T08:22:38.481Z,69.39
2023-08-07T08:25:06.129Z,69.77
2023-08-07T08:27:33.742Z,69.19
2023-08-07T08:30:00.898Z,68.90
2023-08-07T08:32:28.487Z,68.98
2023-08-07T08:34:55.455Z,69.44
2023-08-07T08:37:23.043Z,69.69
2023-08-07T08:39:51.178Z,69.19
2023-08-07T08:42:19.049Z,69.33
2023-08-07T08:44:57.620Z,68.92
2023-08-07T08:47:28.084Z,68.63
2023-08-07T08:50:13.564Z,68.44
2023-08-07T08:52:45.791Z,68.41
2023-08-07T08:55:14.823Z,67.98
2023-08-07T08:57:43.536Z,67.67
2023-08-07T09:00:22.427Z,66.36
2023-08-07T09:02:51.889Z,65.35
2023-08-07T09:05:22.068Z,65.41
2023-08-07T09:07:50.562Z,64.60
2023-08-07T09:10:18.484Z,64.56
2023-08-07T09:13:06.141Z,64.72
2023-08-07T09:15:34.363Z,62.78
2023-08-07T09:18:03.767Z,60.96
2023-08-07T09:20:31.104Z,61.38
2023-08-07T09:22:58.379Z,62.77
2023-08-07T09:25:32.269Z,61.98
2023-08-07T09:28:05.384Z,62.41
2023-08-07T09:30:36.199Z,62.97
2023-08-07T09:33:04.186Z,63.06
2023-08-07T09:35:34.329Z,62.88
2023-08-07T09:38:02.789Z,63.08
2023-08-07T09:40:32.426Z,63.06
2023-08-07T09:43:03.339Z,63.34
2023-08-07T09:45:32.645Z,63.24
2023-08-07T09:48:07.491Z,63.50
2023-08-07T09:50:34.653Z,63.64
2023-08-07T09:53:02.970Z,62.66
2023-08-07T09:55:30.326Z,63.24
2023-08-07T09:57:57.606Z,61.82
2023-08-07T10:00:24.692Z,61.96
2023-08-07T10:02:52.891Z,62.17
2023-08-07T10:05:20.174Z,61.57
2023-08-07T10:07:50.714Z,61.42
2023-08-07T10:10:18.491Z,61.38
2023-08-07T10:12:48.974Z,61.61
2023-08-07T10:15:16.811Z,64.03
2023-08-07T10:17:44.916Z,65.61
2023-08-07T10:20:14.175Z,66.34
2023-08-07T10:22:44.155Z,66.38
2023-08-07T10:25:11.364Z,67.39
2023-08-07T10:27:42.931Z,67.41
2023-08-07T10:30:15.718Z,66.30
2023-08-07T10:32:45.533Z,66.56
2023-08-07T10:35:31.795Z,65.73
2023-08-07T10:38:11.170Z,65.85
2023-08-07T10:41:04.620Z,64.83
2023-08-07T10:43:32.535Z,64.55
2023-08-07T10:46:24.054Z,64.08
2023-08-07T10:49:00.742Z,63.31
2023-08-07T10:51:34.694Z,62.29
2023-08-07T10:54:03.509Z,62.78
2023-08-07T10:56:37.763Z,61.66
2023-08-07T10:59:13.275Z,60.59
2023-08-07T11:01:40.296Z,60.78
2023-08-07T11:04:16.755Z,60.91
2023-08-07T11:06:48.905Z,60.33
2023-08-07T11:09:16.420Z,60.45
2023-08-07T11:11:47.453Z,60.30
2023-08-07T11:14:18.179Z,59.27
2023-08-07T11:16:47.886Z,59.39
2023-08-07T11:19:18.197Z,58.53
2023-08-07T11:21:45.861Z,58.22
2023-08-07T11:24:15.099Z,58.33
2023-08-07T11:26:45.848Z,58.54
2023-08-07T11:29:20.533Z,57.76
2023-08-07T11:31:48.381Z,57.54
2023-08-07T11:34:18.818Z,57.38
2023-08-07T11:36:47.049Z,56.88
2023-08-07T11:39:15.878Z,56.81
2023-08-07T11:41:43.299Z,57.45
2023-08-07T11:44:11.240Z,57.71
2023-08-07T11:46:38.817Z,57.10
2023-08-07T11:49:06.763Z,56.21
2023-08-07T11:51:34.172Z,56.31
2023-08-07T11:54:02.997Z,55.61
2023-08-07T11:56:31.837Z,55.46
2023-08-07T11:58:59.590Z,54.30
2023-08-07T12:01:29.172Z,53.96
2023-08-07T12:04:11.595Z,53.67
2023-08-07T12:06:43.507Z,53.87
2023-08-07T12:09:14.595Z,54.30
2023-08-07T12:11:42.128Z,53.67
2023-08-07T12:14:16.719Z,53.65
2023-08-07T12:16:49.439Z,53.07
2023-08-07T12:19:18.287Z,52.68
2023-08-07T12:21:45.908Z,52.73
2023-08-07T12:24:14.620Z,52.07
2023-08-07T12:26:41.768Z,52.38
2023-08-07T12:29:09.632Z,53.30
2023-08-07T12:31:39.706Z,52.70
2023-08-07T12:36:37.469Z,52.65
2023-08-07T12:39:07.422Z,53.19
2023-08-07T12:44:06.687Z,53.68
2023-08-07T12:46:36.159Z,54.05
2023-08-07T12:49:05.741Z,53.54
2023-08-07T12:51:35.656Z,53.30
2023-08-07T12:54:03.670Z,52.77
2023-08-07T12:56:30.915Z,52.07
2023-08-07T12:58:58.686Z,51.61
2023-08-07T13:01:26.927Z,51.51
2023-08-07T13:03:54.585Z,51.17
2023-08-07T13:06:22.117Z,51.50
2023-08-07T13:08:49.339Z,50.59
2023-08-07T13:11:16.512Z,50.14
2023-08-07T13:13:44.013Z,48.99
2023-08-07T13:16:10.907Z,48.96
2023-08-07T13:18:38.282Z,49.19
2023-08-07T13:21:05.337Z,48.68
2023-08-07T13:23:32.708Z,48.31
2023-08-07T13:25:59.742Z,48.61
2023-08-07T13:28:28.459Z,48.92
2023-08-07T13:30:57.397Z,48.61
2023-08-07T13:33:25.138Z,48.63
2023-08-07T13:35:52.040Z,49.17
2023-08-07T13:38:19.998Z,49.47
2023-08-07T13:40:47.317Z,49.54
2023-08-07T13:43:14.953Z,48.82
2023-08-07T13:45:42.033Z,49.36
2023-08-07T13:48:10.974Z,48.81
2023-08-07T13:50:39.377Z,47.68
2023-08-07T13:53:14.224Z,48.08
2023-08-07T13:55:43.226Z,48.27
2023-08-07T13:58:11.142Z,48.53
2023-08-07T14:00:39.971Z,48.33
2023-08-07T14:03:07.488Z,48.03
2023-08-07T14:05:34.618Z,48.19
2023-08-07T14:08:03.570Z,48.00
2023-08-07T14:10:30.808Z,48.06
2023-08-07T14:12:58.447Z,48.34
2023-08-07T14:15:26.113Z,48.04
2023-08-07T14:17:54.708Z,48.04
2023-08-07T14:20:23.524Z,47.97
2023-08-07T14:22:52.172Z,47.78
2023-08-07T14:25:19.350Z,47.85
2023-08-07T14:27:49.229Z,47.60
2023-08-07T14:30:16.955Z,47.99
2023-08-07T14:32:44.808Z,47.48
2023-08-07T14:35:12.254Z,47.47
2023-08-07T14:37:39.450Z,47.83
2023-08-07T14:40:09.620Z,47.84
2023-08-07T14:42:37.092Z,48.21
2023-08-07T14:45:04.954Z,48.08
2023-08-07T14:47:32.414Z,48.25
2023-08-07T14:50:00.113Z,48.09
2023-08-07T14:52:28.122Z,47.88
2023-08-07T14:54:58.589Z,47.33
2023-08-07T14:57:25.844Z,48.12
2023-08-07T14:59:52.992Z,47.71
2023-08-07T15:02:20.532Z,47.68
2023-08-07T15:04:47.615Z,48.90
2023-08-07T15:07:15.613Z,48.68
2023-08-07T15:09:43.092Z,48.61
2023-08-07T15:12:11.723Z,49.27
2023-08-07T15:14:39.557Z,48.78
2023-08-07T15:17:07.129Z,49.01
2023-08-07T15:19:34.396Z,48.55
2023-08-07T15:22:02.064Z,49.21
2023-08-07T15:24:29.848Z,49.87
2023-08-07T15:27:02.415Z,49.36
2023-08-07T15:29:30.071Z,49.15
2023-08-07T15:31:57.763Z,49.90
2023-08-07T15:34:24.965Z,48.98
2023-08-07T15:36:52.437Z,49.24
2023-08-07T15:39:19.755Z,49.17
2023-08-07T15:41:47.025Z,49.08
2023-08-07T15:44:13.953Z,48.70
2023-08-07T15:46:41.556Z,48.82
2023-08-07T15:49:08.580Z,48.64
2023-08-07T15:51:36.199Z,47.64
2023-08-07T15:54:03.469Z,47.45
2023-08-07T15:56:30.858Z,46.58
2023-08-07T15:58:58.188Z,46.58
2023-08-07T16:01:25.579Z,46.48
2023-08-07T16:03:52.590Z,46.62
2023-08-07T16:06:21.177Z,47.20
2023-08-07T16:08:48.660Z,47.93
2023-08-07T16:11:16.403Z,47.83
2023-08-07T16:13:43.597Z,48.55
2023-08-07T16:16:11.025Z,48.17
2023-08-07T16:18:39.578Z,48.56
2023-08-07T16:21:08.911Z,49.03
2023-08-07T16:23:36.737Z,49.58
2023-08-07T16:26:04.363Z,49.21
2023-08-07T16:28:31.716Z,49.42
2023-08-07T16:30:59.834Z,49.61
2023-08-07T16:33:26.719Z,49.18
2023-08-07T16:35:54.487Z,49.20
2023-08-07T16:38:21.952Z,49.99
2023-08-07T16:40:49.399Z,49.88
2023-08-07T16:43:16.516Z,50.01
2023-08-07T16:45:43.838Z,50.37
2023-08-07T16:48:11.271Z,50.61
2023-08-07T16:50:38.557Z,50.65
2023-08-07T16:53:05.890Z,50.86
2023-08-07T16:55:33.109Z,50.61
2023-08-07T16:58:00.132Z,50.69
2023-08-07T17:00:27.436Z,50.75
2023-08-07T17:02:54.565Z,50.80
2023-08-07T17:05:26.010Z,50.97
2023-08-07T17:07:53.317Z,50.66
2023-08-07T17:10:21.328Z,50.57
2023-08-07T17:12:48.459Z,51.11
2023-08-07T17:15:15.683Z,50.96
2023-08-07T17:17:42.889Z,51.14
2023-08-07T17:20:11.318Z,52.00
2023-08-07T17:22:39.054Z,51.89
2023-08-07T17:25:07.041Z,52.06
2023-08-07T17:27:34.218Z,52.45
2023-08-07T17:30:01.650Z,52.65
2023-08-07T17:32:28.868Z,52.74
2023-08-07T17:34:57.754Z,53.05
2023-08-07T17:37:25.088Z,53.55
2023-08-07T17:39:52.498Z,53.73
2023-08-07T17:42:19.552Z,53.87
2023-08-07T17:44:46.802Z,53.90
2023-08-07T17:47:13.940Z,53.90
2023-08-07T17:49:41.692Z,54.41
2023-08-07T17:52:09.003Z,54.10
2023-08-07T17:54:39.053Z,54.34
2023-08-07T17:57:06.831Z,54.59
2023-08-07T17:59:34.269Z,54.31
2023-08-07T18:02:01.257Z,54.35
2023-08-07T18:04:29.194Z,54.22
2023-08-07T18:06:56.620Z,54.51
2023-08-07T18:09:24.260Z,54.57
2023-08-07T18:11:51.753Z,55.02
2023-08-07T18:14:19.066Z,55.03
2023-08-07T18:16:46.089Z,55.17
2023-08-07T18:19:14.326Z,55.40
2023-08-07T18:21:41.368Z,55.49
2023-08-07T18:24:08.768Z,56.17
2023-08-07T18:26:35.899Z,56.59
2023-08-07T18:29:03.310Z,57.42
2023-08-07T18:31:32.696Z,57.92
2023-08-07T18:34:00.048Z,59.32
2023-08-07T18:36:27.263Z,59.79
2023-08-07T18:38:54.567Z,60.71
2023-08-07T18:41:21.673Z,61.59
2023-08-07T18:43:48.960Z,60.96
2023-08-07T18:46:17.704Z,61.44
2023-08-07T18:48:45.110Z,61.83
2023-08-07T18:51:12.700Z,61.64
2023-08-07T18:53:40.393Z,61.39
2023-08-07T18:56:07.612Z,60.43
2023-08-07T18:58:35.335Z,60.64
2023-08-07T19:01:02.532Z,60.06
2023-08-07T19:03:30.044Z,59.80
2023-08-07T19:05:57.124Z,60.41
2023-08-07T19:08:24.425Z,60.52
2023-08-07T19:10:51.442Z,60.36
2023-08-07T19:13:18.656Z,60.68
2023-08-07T19:15:47.009Z,60.45
2023-08-07T19:18:14.336Z,59.69
2023-08-07T19:20:43.204Z,60.05
2023-08-07T19:23:12.090Z,59.93
2023-08-07T19:25:39.215Z,59.75
2023-08-07T19:28:07.061Z,59.25
2023-08-07T19:30:35.309Z,59.34
2023-08-07T19:33:03.065Z,58.31
2023-08-07T19:35:30.385Z,58.75
2023-08-07T19:37:57.810Z,58.13
2023-08-07T19:40:28.726Z,57.77
2023-08-07T19:42:56.077Z,57.66
2023-08-07T19:45:23.332Z,57.44
2023-08-07T19:47:53.848Z,57.88
2023-08-07T19:50:21.737Z,57.02
2023-08-07T19:52:49.107Z,56.97
2023-08-07T19:55:18.087Z,57.05
2023-08-07T19:57:45.596Z,57.07
2023-08-07T20:00:14.140Z,57.14
2023-08-07T20:02:41.998Z,56.94
2023-08-07T20:05:09.560Z,57.15
2023-08-07T20:07:36.956Z,57.32
2023-08-07T20:10:07.936Z,57.50
2023-08-07T20:12:35.346Z,57.44
2023-08-07T20:15:02.410Z,58.01
2023-08-07T20:17:30.036Z,58.36
2023-08-07T20:19:57.045Z,58.51
2023-08-07T20:22:24.275Z,59.26
2023-08-07T20:24:51.303Z,59.72
2023-08-07T20:27:18.615Z,60.13
2023-08-07T20:29:45.770Z,60.82
2023-08-07T20:32:12.968Z,60.58
2023-08-07T20:34:39.961Z,60.91
2023-08-07T20:37:07.457Z,60.64
2023-08-07T20:39:34.411Z,61.09
2023-08-07T20:42:01.799Z,60.91
2023-08-07T20:44:29.017Z,60.96
2023-08-07T20:46:56.354Z,60.68
2023-08-07T20:49:23.559Z,61.02
2023-08-07T20:51:50.824Z,61.07
2023-08-07T20:54:17.842Z,61.30
2023-08-07T20:56:45.253Z,61.79
2023-08-07T20:59:12.311Z,61.30
2023-08-07T21:01:41.212Z,61.42
2023-08-07T21:04:08.398Z,61.86
2023-08-07T21:06:35.807Z,62.25
2023-08-07T21:09:03.236Z,62.20
2023-08-07T21:11:30.843Z,62.42
2023-08-07T21:13:59.942Z,62.86
2023-08-07T21:16:27.620Z,62.80
2023-08-07T21:18:54.609Z,62.75
2023-08-07T21:21:25.788Z,62.96
2023-08-07T21:23:53.391Z,63.02
2023-08-07T21:26:21.465Z,62.88
2023-08-07T21:28:48.448Z,63.08
2023-08-07T21:31:15.747Z,63.17
2023-08-07T21:33:42.754Z,63.59
2023-08-07T21:36:10.084Z,63.25
2023-08-07T21:38:37.196Z,63.01
2023-08-07T21:41:04.405Z,63.30
2023-08-07T21:43:31.395Z,62.74
2023-08-07T21:45:58.737Z,62.76
2023-08-07T21:48:25.797Z,63.07
2023-08-07T21:50:53.142Z,63.10
2023-08-07T21:53:20.444Z,63.13
2023-08-07T21:55:47.690Z,62.75
2023-08-07T21:58:14.716Z,62.58
2023-08-07T22:00:42.017Z,62.66
2023-08-07T22:03:09.089Z,62.80
2023-08-07T22:05:36.441Z,62.87
2023-08-07T22:08:04.913Z,62.71
2023-08-07T22:10:32.153Z,62.95
2023-08-07T22:12:59.157Z,62.94
2023-08-07T22:15:26.411Z,63.06
2023-08-07T22:17:54.551Z,63.39
2023-08-07T22:20:22.565Z,63.60
2023-08-07T22:22:49.838Z,63.10
2023-08-07T22:25:17.241Z,63.07
2023-08-07T22:27:44.362Z,63.22
2023-08-07T22:30:14.406Z,62.99
2023-08-07T22:32:43.053Z,63.06
2023-08-07T22:35:10.490Z,62.94
2023-08-07T22:37:37.550Z,62.75
2023-08-07T22:40:05.655Z,62.84
2023-08-07T22:42:32.794Z,62.62
2023-08-07T22:45:00.049Z,62.37
2023-08-07T22:47:27.069Z,62.40
2023-08-07T22:49:54.405Z,62.24
2023-08-07T22:52:21.366Z,62.00
2023-08-07T22:54:48.649Z,62.20
2023-08-07T22:57:15.662Z,62.32
2023-08-07T22:59:42.893Z,62.18
2023-08-07T23:02:09.927Z,62.32
2023-08-07T23:04:37.140Z,62.39
2023-08-07T23:07:04.374Z,62.12
2023-08-07T23:09:32.017Z,62.29
2023-08-07T23:11:59.192Z,62.29
2023-08-07T23:14:26.573Z,62.22
2023-08-07T23:16:53.823Z,62.03
2023-08-07T23:19:21.070Z,62.15
2023-08-07T23:21:48.090Z,62.34
2023-08-07T23:24:15.292Z,63.05
2023-08-07T23:26:42.286Z,62.75
2023-08-07T23:29:09.549Z,62.98
2023-08-07T23:31:36.650Z,63.38
2023-08-07T23:34:04.958Z,63.28
2023-08-07T23:36:32.212Z,63.38
2023-08-07T23:38:59.508Z,63.27
2023-08-07T23:41:26.555Z,63.96
2023-08-07T23:43:53.780Z,64.02
2023-08-07T23:46:20.790Z,63.80
2023-08-07T23:48:48.074Z,63.77
2023-08-07T23:51:15.142Z,63.92
2023-08-07T23:53:42.329Z,63.68
2023-08-07T23:56:09.642Z,63.78
2023-08-07T23:58:36.836Z,63.63
